Fernandes Tourinho, Brazil
Current Conditions -  °F | °C
As of 5:00 PM on Thursday 27 Nov 2014 (Local Time) from SBIP Reporting Station
Broken Clouds Broken Clouds  
Wind Chill: 88°   Ceiling: 8000
Heat Index: 90°   Visibility: 6mi
Dew Point: 66°   Wind: 7mph
Humidity: 49%   Direction: 240°WSW
Pressure: 29.8"   Gusts: NA
Location:  19.15°S, 42.08°W
Report Text: SBIP 271900Z 24006KT 9999 SCT025 SCT040 BKN080 31/19 Q1009
Loading
Personal Weather Stations






























Interactive Weather Map New forecast layout! Learn more

10-Day Weather Forecast

Advertisements
Track Severe Weather on mobile